This is the latest recevied weather packets stored in our database for station/object KE5VT. If no packets are shown the sender has not sent any weather packets the latest 10 day(s).
| Time | Temp. | Humidity | Pressure | Rain* | Wind** | Luminosity | Snow |
|---|---|---|---|---|---|---|---|
| 1778102667 | 25.56° C | 64% | 1008.7 hPa | 0 mm | - | 134 W/m² | - |
| 1778102362 | 25.56° C | 65% | 1009 hPa | 0 mm | - | 303 W/m² | - |
| 1778102058 | 25.56° C | 64% | 1008.9 hPa | 0 mm | - | 194 W/m² | - |
| 1778101756 | 25.56° C | 64% | 1008.9 hPa | 0 mm | - | 194 W/m² | - |
| 1778101452 | 25.56° C | 64% | 1008.8 hPa | 0 mm | - | 193 W/m² | - |
| 1778101150 | 25.56° C | 65% | 1008.6 hPa | 0 mm | - | 248 W/m² | - |
| 1778100845 | 25.56° C | 64% | 1008.8 hPa | 0 mm | - | 184 W/m² | - |
| 1778100542 | 25.56° C | 63% | 1008.9 hPa | 0 mm | - | 246 W/m² | - |
| 1778100240 | 26.67° C | 62% | 1008.8 hPa | 0 mm | - | 472 W/m² | - |
| 1778099937 | 25.56° C | 62% | 1008.8 hPa | 0 mm | - | 134 W/m² | - |
| 1778099634 | 26.11° C | 62% | 1008.8 hPa | 0 mm | - | 406 W/m² | - |
| 1778099331 | 25.56° C | 62% | 1008.9 hPa | 0 mm | - | 377 W/m² | - |
| 1778099028 | 25.56° C | 63% | 1008.8 hPa | 0 mm | - | 124 W/m² | - |
| 1778098725 | 25.56° C | 64% | 1009 hPa | 0 mm | - | 106 W/m² | - |
| 1778098422 | 25.56° C | 63% | 1008.9 hPa | 0 mm | - | 264 W/m² | - |
| 1778098119 | 25° C | 64% | 1009.1 hPa | 0 mm | - | 289 W/m² | - |
| 1778097815 | 25° C | 65% | 1008.8 hPa | 0 mm | - | 360 W/m² | - |
| 1778097511 | 25° C | 65% | 1008.8 hPa | 0 mm | - | 479 W/m² | - |
| 1778097208 | 24.44° C | 66% | 1009.1 hPa | 0 mm | - | 210 W/m² | - |
| 1778096905 | 25° C | 65% | 1009.1 hPa | 0 mm | - | 207 W/m² | - |
| 1778096602 | 25.56° C | 64% | 1009.3 hPa | 0 mm | - | 195 W/m² | - |
| 1778096299 | 25° C | 64% | 1009.3 hPa | 0 mm | - | 121 W/m² | - |
| 1778095996 | 25° C | 64% | 1009.5 hPa | 0 mm | - | 424 W/m² | - |
| 1778095692 | 25.56° C | 62% | 1009.1 hPa | 0 mm | - | 632 W/m² | - |
| 1778095389 | 25° C | 65% | 1009.3 hPa | 0 mm | - | 589 W/m² | - |
* Rain latest hour (hover to see other rain measurements)
** Current wind speed in m/s (hover to see current wind gust speed)